ADDS METAR Data INFO
IDs: Format: Raw Decoded Include TAF

Data at: 2033 UTC 16 Dec 2017

KMLC 161953Z AUTO 18006G16KT 10SM CLR 16/M02 A3002 RMK AO2 SLP166 T01611017
KMLC 161853Z AUTO 19011G19KT 10SM FEW110 16/M02 A3003 RMK AO2 SLP169 T01611022
KMLC 161753Z AUTO 18009G15KT 10SM FEW100 15/M02 A3006 RMK AO2 SLP180 T01501022 10150 20039 58017
KMLC 161653Z AUTO 20011G19KT 10SM FEW100 12/M02 A3011 RMK AO2 SLP196 T01221022
KMLC 161553Z AUTO 21008KT 10SM CLR 09/M02 A3012 RMK AO2 SLP200 T00941022
KMLC 161453Z AUTO 19008KT 10SM FEW085 06/M03 A3011 RMK AO2 SLP200 T00561028 51005
KMLC 161353Z AUTO 19006KT 10SM FEW110 04/M03 A3011 RMK AO2 SLP200 T00441033
KMLC 161253Z AUTO 19006KT 10SM FEW065 SCT090 SCT110 04/M04 A3011 RMK AO2 SLP198 T00391039
KMLC 161153Z AUTO 18006KT 10SM FEW110 05/M04 A3010 RMK AO2 SLP194 T00501039 10050 20000 55006
KMLC 161053Z AUTO 19006KT 10SM CLR 04/M04 A3009 RMK AO2 SLP191 T00441039
KMLC 160953Z AUTO 19006KT 10SM CLR 05/M04 A3011 RMK AO2 SLP196 T00501044
KMLC 160853Z AUTO 18007KT 10SM CLR 04/M04 A3012 RMK AO2 SLP198 T00441044 56011
KMLC 160753Z AUTO 21004KT 10SM CLR 02/M04 A3012 RMK AO2 SLP201 T00171044
KMLC 160653Z AUTO 21003KT 10SM CLR 02/M05 A3013 RMK AO2 SLP203 T00171050
KMLC 160553Z AUTO 23003KT 10SM CLR 01/M05 A3015 RMK AO2 SLP211 T00111050 10039 21006 401171044 56007
KMLC 160453Z AUTO 21005KT 10SM CLR 03/M04 A3016 RMK AO2 SLP213 T00281044
KMLC 160353Z AUTO 20005KT 10SM CLR 01/M05 A3016 RMK AO2 SLP216 T00111050
KMLC 160253Z AUTO 22003KT 10SM CLR 00/M05 A3017 RMK AO2 SLP221 T00001050 50001
KMLC 160153Z AUTO 20003KT 10SM CLR M01/M04 A3018 RMK AO2 SLP223 T10061044
KMLC 160053Z AUTO 00000KT 10SM FEW075 SCT110 01/M04 A3018 RMK AO2 SLP225 T00111039
KMLC 152353Z AUTO 19003KT 10SM CLR 04/M04 A3017 RMK AO2 SLP219 T00391039 10117 20039 56011
KMLC 152253Z AUTO 25003KT 10SM FEW090 SCT120 09/M04 A3017 RMK AO2 SLP220 T00941039
KMLC 152153Z AUTO 27006KT 10SM CLR 11/M04 A3018 RMK AO2 SLP221 T01111039
KMLC 152053Z AUTO 27007KT 10SM CLR 11/M03 A3020 RMK AO2 SLP229 T01111033 56017
KMLC 151953Z AUTO 30009KT 10SM CLR 11/M02 A3021 RMK AO2 SLP231 T01111022
KMLC 151853Z AUTO VRB04KT 10SM FEW040 09/M01 A3023 RMK AO2 SLP239 T00941011
KMLC 151753Z AUTO 00000KT 10SM SCT032 SCT110 08/00 A3025 RMK AO2 SLP247 T00830000 10094 21017 58006
KMLC 151653Z AUTO 33006KT 10SM CLR 08/01 A3028 RMK AO2 SLP258 T00780011
KMLC 151553Z AUTO 31005KT 10SM FEW110 06/01 A3029 RMK AO2 SLP261 T00560011
KMLC 151453Z AUTO 32006KT 10SM CLR 03/01 A3027 RMK AO2 SLP255 T00330006 51013
KMLC 151353Z AUTO 32007KT 10SM SCT075 BKN090 BKN110 02/M01 A3026 RMK AO2 SLP252 T00171006
KMLC 151253Z AUTO 00000KT 10SM FEW110 00/M02 A3025 RMK AO2 SLP249 T00001017
KMLC 151153Z AUTO 30008KT 10SM FEW110 01/M01 A3023 RMK AO2 SLP240 T00111011 10011 21044 53010
KMLC 151053Z AUTO 29004KT 10SM FEW120 M03/M05 A3021 RMK AO2 SLP234 T10331050
KMLC 150953Z AUTO 00000KT 10SM CLR M03/M05 A3021 RMK AO2 SLP233 T10331050
KMLC 150853Z AUTO 20004KT 10SM FEW070 SCT110 M03/M05 A3020 RMK AO2 SLP229 T10281050 52001